UWWW

Samara/Kurumoch International

Airport
ICAO code
UWWW
Summary
ICAO Region
EUR
ICAO Territory
Location

Samara,

Coordinates
53° 30' 28" N , 50° 8' 51" E
Metar
UWWW 241130Z 15004MPS CAVOK M11/M19 Q1043 R15/410158 NOSIG RMK QFE771/1028

Description

Kurumoch International Airport is the international airport of Samara, Russia located 35 km north of the city.

Climatology

Runways

Designator Length Width Surface Rops
5/23 2548 60 ASP Yes/Yes
15/33 3001 45 CON Yes/Yes

Airport map

Aerial View

SKYbrary Partners:

Safety knowledge contributed by: